Plato — 8PRX — position and weather

sailwx.info

Track history (hours):
 
Tides and Currents Weather Stations Pressure Air Temp Water Temp Dewpoint Dewpoint Depression Visibility Wind Speed Wind Dir Waves Ship Positions

Plato

Last reported at 2017-Nov-18 13:29 UTC. Time now 2017-Nov-19 13:59 UTC.
Position N 57°41' E 007°28'.

Length 89 m; draft 4.8 m.

Type: Cargo ship. MMSI: 314189000.

Date/timePositionNaut miles runAvg speedWind from/ knotsBaromVisibWave heightAir tempDewpointWater temp
2017-Nov-18 13:29N 57°41' E 007°28'3 6.0
2017-Nov-18 13:00N 57°43' E 007°32'3 6.6
2017-Nov-18 12:30N 57°45' E 007°37'4 7.1
2017-Nov-18 12:00N 57°47' E 007°42'4 7.3
2017-Nov-18 11:30N 57°49' E 007°48'4 7.5
2017-Nov-18 11:00N 57°52' E 007°53'4 7.8
2017-Nov-18 10:30N 57°54' E 007°59'4 7.5
2017-Nov-18 10:00N 57°56' E 008°05'4 8.0
2017-Nov-18 09:30N 57°58' E 008°11'4 7.8
2017-Nov-18 09:00N 58°01' E 008°17'4 8.1
2017-Nov-18 08:30N 58°03' E 008°23'4 8.4
2017-Nov-18 08:00N 58°06' E 008°30'4 8.6
2017-Nov-18 07:30N 58°08' E 008°36'4 8.7
2017-Nov-18 07:00N 58°11' E 008°43'4 8.3
2017-Nov-18 06:30N 58°13' E 008°49'4 8.3
2017-Nov-18 06:00N 58°16' E 008°55'4 8.1
2017-Nov-18 05:30N 58°18' E 009°02'4 7.8
2017-Nov-18 05:00N 58°21' E 009°07'4 7.7
2017-Nov-18 04:30N 58°23' E 009°13'4 7.6
2017-Nov-18 04:00N 58°25' E 009°19'4 7.6
2017-Nov-18 03:30N 58°27' E 009°25'4 7.8
2017-Nov-18 03:00N 58°30' E 009°31'19 7.2
2017-Nov-18 00:23N 58°41' E 009°60'3 6.7
2017-Nov-18 00:00N 58°43' E 010°03'3 6.1
2017-Nov-17 23:30N 58°45' E 010°08'3 6.2
2017-Nov-17 23:01N 58°47' E 010°12'3 6.4
2017-Nov-17 22:30N 58°49' E 010°17'3 5.9
2017-Nov-17 22:00N 58°51' E 010°21'3 5.3
2017-Nov-17 21:30N 58°53' E 010°25'3 5.6
2017-Nov-17 21:00N 58°55' E 010°28'3 5.6
2017-Nov-17 20:30N 58°57' E 010°32'3 5.4
2017-Nov-17 20:00N 58°59' E 010°36'3 5.6
2017-Nov-17 19:30N 59°00' E 010°41'3 5.6
2017-Nov-17 19:00N 59°02' E 010°45'3 6.2
2017-Nov-17 18:31N 59°01' E 010°51'4 7.6
2017-Nov-17 18:01N 58°60' E 010°58'4 7.8
2017-Nov-17 17:31N 59°04' E 010°58'5 9.8
2017-Nov-17 17:00N 59°09' E 010°58'3 5.1
2017-Nov-17 16:30N 59°11' E 010°57'0 0.8
2017-Nov-17 16:00N 59°11' E 010°57'0 0.0
2017-Nov-17 15:30N 59°11' E 010°57'0 0.0
2017-Nov-17 15:00N 59°11' E 010°57'0 0.0
2017-Nov-17 14:30N 59°11' E 010°57'0 0.0
2017-Nov-17 14:00N 59°11' E 010°57'0 0.0
2017-Nov-17 13:30N 59°11' E 010°57'0 0.0
2017-Nov-17 13:00N 59°11' E 010°57'0 0.0
2017-Nov-17 12:30N 59°11' E 010°57'0 0.0
2017-Nov-17 12:00N 59°11' E 010°57'0 0.0
2017-Nov-17 11:30N 59°11' E 010°57'0 0.0
2017-Nov-17 11:00N 59°11' E 010°57'0 0.0
2017-Nov-17 10:30N 59°11' E 010°57'0 0.0
2017-Nov-17 10:00N 59°11' E 010°57'0 0.0
2017-Nov-17 09:30N 59°11' E 010°57'0 0.0
2017-Nov-17 09:00N 59°11' E 010°57'0 0.0
2017-Nov-17 08:30N 59°11' E 010°57'0 0.0
2017-Nov-17 08:00N 59°11' E 010°57'0 0.0
2017-Nov-17 07:30N 59°11' E 010°57'0 0.0
2017-Nov-17 07:00N 59°11' E 010°57'0 0.0
2017-Nov-17 06:30N 59°11' E 010°57'0 0.0
2017-Nov-17 06:00N 59°11' E 010°57'0 0.0
2017-Nov-17 05:30N 59°11' E 010°57'0 0.0
2017-Nov-17 05:00N 59°11' E 010°57'0 0.0
2017-Nov-17 04:30N 59°11' E 010°57'0 0.0
2017-Nov-17 04:00N 59°11' E 010°57'0 0.0
2017-Nov-17 03:30N 59°11' E 010°57'0 0.0
2017-Nov-17 03:00N 59°11' E 010°57'0 0.0
2017-Nov-17 02:30N 59°11' E 010°57'0 0.0
2017-Nov-17 02:00N 59°11' E 010°57'0 0.0
2017-Nov-17 01:30N 59°11' E 010°57'0 0.0
2017-Nov-17 01:00N 59°11' E 010°57'0 0.0
2017-Nov-17 00:30N 59°11' E 010°57'0 0.0
2017-Nov-17 00:00N 59°11' E 010°57'0 0.0
2017-Nov-16 23:30N 59°11' E 010°57'0 0.0
2017-Nov-16 23:00N 59°11' E 010°57'0 0.0
2017-Nov-16 22:30N 59°11' E 010°57'0 0.0
2017-Nov-16 22:00N 59°11' E 010°57'0 0.0
2017-Nov-16 21:30N 59°11' E 010°57'0 0.0
2017-Nov-16 21:00N 59°11' E 010°57'0 0.0
2017-Nov-16 20:30N 59°11' E 010°57'0 0.0
2017-Nov-16 19:59N 59°11' E 010°57'0 0.1
2017-Nov-16 19:30N 59°11' E 010°57'3 7.0
2017-Nov-16 19:00N 59°07' E 010°58'4 8.7
2017-Nov-16 18:30N 59°03' E 010°58'2 4.8
2017-Nov-16 18:00N 59°01' E 010°59'0 0.4
2017-Nov-16 17:30N 59°01' E 010°59'0 0.1
2017-Nov-16 17:00N 59°01' E 010°59'0 0.0
2017-Nov-16 16:30N 59°01' E 010°59'0 0.1
2017-Nov-16 16:00N 59°01' E 010°59'0 0.1
2017-Nov-16 15:30N 59°01' E 010°59'0 0.1
2017-Nov-16 15:00N 59°01' E 010°59'0 0.0
2017-Nov-16 14:30N 59°01' E 010°59'0 0.0
2017-Nov-16 14:00N 59°01' E 010°59'0 0.1
2017-Nov-16 13:30N 59°01' E 010°59'0 0.1
2017-Nov-16 13:00N 59°01' E 010°59'0 0.0
2017-Nov-16 12:30N 59°01' E 010°59'0 0.0
2017-Nov-16 12:00N 59°01' E 010°59'0 0.0
2017-Nov-16 11:30N 59°01' E 010°59'0 0.0
2017-Nov-16 11:00N 59°01' E 010°59'0 0.0
2017-Nov-16 10:30N 59°01' E 010°59'0 0.0
2017-Nov-16 10:00N 59°01' E 010°59'0 0.0
2017-Nov-16 09:30N 59°01' E 010°59'0 0.0
2017-Nov-16 09:00N 59°01' E 010°59'0 0.0
2017-Nov-16 08:30N 59°01' E 010°59'0 0.0
2017-Nov-16 08:00N 59°01' E 010°59'1 1.4
2017-Nov-16 07:30N 59°01' E 010°57'4 7.5
2017-Nov-16 07:00N 59°02' E 010°50'3 5.8
2017-Nov-16 06:30N 59°01' E 010°45'4 7.9
2017-Nov-16 06:00N 58°58' E 010°40'4 8.3
2017-Nov-16 05:30N 58°56' E 010°34'5 9.3
2017-Nov-16 05:00N 58°52' E 010°27'4 8.9
2017-Nov-16 04:30N 58°49' E 010°21'4 8.3
2017-Nov-16 04:00N 58°46' E 010°15'4 8.2
2017-Nov-16 03:30N 58°44' E 010°09'52 6.3
2017-Nov-15 19:16N 58°04' E 009°04'22 8.2
2017-Nov-15 16:36N 57°44' E 008°52'1 8.6
2017-Nov-15 16:29N 57°43' E 008°51'4 8.6
2017-Nov-15 16:00N 57°39' E 008°49'4 7.8
2017-Nov-15 15:29N 57°35' E 008°48'4 7.8
2017-Nov-15 15:00N 57°31' E 008°46'4 8.6
2017-Nov-15 14:30N 57°28' E 008°42'4 8.4
2017-Nov-15 14:00N 57°24' E 008°37'303 8.1
2017-Nov-14 00:27N 52°58' E 004°22'4 9.2
2017-Nov-13 23:59N 52°54' E 004°19'5 9.5
2017-Nov-13 23:30N 52°50' E 004°16'4 8.7
2017-Nov-13 23:00N 52°46' E 004°15'4 8.3
2017-Nov-13 22:30N 52°42' E 004°17'4 7.8
2017-Nov-13 22:01N 52°38' E 004°19'16 0.8
2017-Nov-13 01:58N 52°28' E 004°40'0 0.0
2017-Nov-13 01:28N 52°28' E 004°40'0 0.0
2017-Nov-13 00:58N 52°28' E 004°40'0 0.0
2017-Nov-13 00:25N 52°28' E 004°40'0 0.0
2017-Nov-12 23:55N 52°28' E 004°40'0 0.0
2017-Nov-12 23:28N 52°28' E 004°40'0 0.0
2017-Nov-12 22:58N 52°28' E 004°40'0 0.0
2017-Nov-12 22:28N 52°28' E 004°40'0 0.0
2017-Nov-12 21:58N 52°28' E 004°40'0 0.0
2017-Nov-12 21:28N 52°28' E 004°40'0 0.0
2017-Nov-12 20:58N 52°28' E 004°40'0 0.0
2017-Nov-12 20:28N 52°28' E 004°40'0 0.0
2017-Nov-12 19:58N 52°28' E 004°40'0 0.0
2017-Nov-12 19:28N 52°28' E 004°40'0 0.0
2017-Nov-12 18:58N 52°28' E 004°40'0 0.0
2017-Nov-12 18:28N 52°28' E 004°40'0 0.0
2017-Nov-12 17:58N 52°28' E 004°40'0 0.0
2017-Nov-12 17:28N 52°28' E 004°40'0 0.0
2017-Nov-12 16:58N 52°28' E 004°40'0 0.0
2017-Nov-12 16:28N 52°28' E 004°40'0 0.0
2017-Nov-12 15:55N 52°28' E 004°40'0 0.0
2017-Nov-12 15:22N 52°28' E 004°40'0 0.0
2017-Nov-12 14:49N 52°28' E 004°40'0 0.0
2017-Nov-12 14:25N 52°28' E 004°40'0 0.0
2017-Nov-12 13:58N 52°28' E 004°40'0 0.0
2017-Nov-12 13:28N 52°28' E 004°40'0 0.0
2017-Nov-12 12:58N 52°28' E 004°40'0 0.0
2017-Nov-12 12:28N 52°28' E 004°40'0 0.0
2017-Nov-12 11:58N 52°28' E 004°40'0 0.0
2017-Nov-12 11:28N 52°28' E 004°40'0 0.0
2017-Nov-12 10:58N 52°28' E 004°40'0 0.0
2017-Nov-12 10:28N 52°28' E 004°40'0 0.0
2017-Nov-12 09:58N 52°28' E 004°40'0 0.0
2017-Nov-12 09:28N 52°28' E 004°40'0 0.0
2017-Nov-12 08:58N 52°28' E 004°40'0 0.0
2017-Nov-12 08:28N 52°28' E 004°40'0 0.0
2017-Nov-12 07:58N 52°28' E 004°40'0 0.0
2017-Nov-12 07:28N 52°28' E 004°40'0 0.0
2017-Nov-12 06:52N 52°28' E 004°40'0 0.0
2017-Nov-12 06:25N 52°28' E 004°40'0 0.0
2017-Nov-12 05:58N 52°28' E 004°40'0 0.0
2017-Nov-12 05:28N 52°28' E 004°40'0 0.0
2017-Nov-12 04:58N 52°28' E 004°40'0 0.0
2017-Nov-12 04:28N 52°28' E 004°40'0 0.0
2017-Nov-12 03:58N 52°28' E 004°40'0 0.0
2017-Nov-12 03:25N 52°28' E 004°40'0 0.0
2017-Nov-12 02:58N 52°28' E 004°40'0 0.0
2017-Nov-12 02:28N 52°28' E 004°40'0 0.0
2017-Nov-12 01:58N 52°28' E 004°40'0 0.0
2017-Nov-12 01:28N 52°28' E 004°40'0 0.0
2017-Nov-12 00:58N 52°28' E 004°40'0 0.0
2017-Nov-12 00:28N 52°28' E 004°40'0 0.0
2017-Nov-11 23:58N 52°28' E 004°40'0 0.0
2017-Nov-11 23:28N 52°28' E 004°40'0 0.0
2017-Nov-11 22:58N 52°28' E 004°40'0 0.0
2017-Nov-11 22:28N 52°28' E 004°40'0 0.0
2017-Nov-11 21:58N 52°28' E 004°40'0 0.0
2017-Nov-11 21:28N 52°28' E 004°40'0 0.0
2017-Nov-11 20:58N 52°28' E 004°40'0 0.0
2017-Nov-11 20:28N 52°28' E 004°40'0 0.0
2017-Nov-11 19:58N 52°28' E 004°40'0 0.0
2017-Nov-11 19:28N 52°28' E 004°40'0 0.0
2017-Nov-11 18:58N 52°28' E 004°40'0 0.0
2017-Nov-11 18:25N 52°28' E 004°40'0 0.0
2017-Nov-11 17:58N 52°28' E 004°40'0 0.0
2017-Nov-11 17:28N 52°28' E 004°40'0 0.0
2017-Nov-11 16:52N 52°28' E 004°40'0 0.0
2017-Nov-11 16:25N 52°28' E 004°40'0 0.0
2017-Nov-11 15:58N 52°28' E 004°40'0 0.0
2017-Nov-11 15:28N 52°28' E 004°40'0 0.0
2017-Nov-11 14:58N 52°28' E 004°40'0 0.0
2017-Nov-11 14:22N 52°28' E 004°40'0 0.0
2017-Nov-11 13:58N 52°28' E 004°40'0 0.0
2017-Nov-11 13:28N 52°28' E 004°40'0 0.0
2017-Nov-11 12:58N 52°28' E 004°40'0 0.0
2017-Nov-11 12:28N 52°28' E 004°40'0 0.0
2017-Nov-11 11:58N 52°28' E 004°40'0 0.0
2017-Nov-11 11:28N 52°28' E 004°40'0 0.0
2017-Nov-11 10:46N 52°28' E 004°40'0 0.0
2017-Nov-11 10:25N 52°28' E 004°40'0 0.0
2017-Nov-11 09:49N 52°28' E 004°40'0 0.0
2017-Nov-11 09:28N 52°28' E 004°40'0 0.0
2017-Nov-11 08:58N 52°28' E 004°40'0 0.0
2017-Nov-11 08:28N 52°28' E 004°40'0 0.0
2017-Nov-11 07:58N 52°28' E 004°40'0 0.0
2017-Nov-11 07:28N 52°28' E 004°40'0 0.0
2017-Nov-11 06:58N 52°28' E 004°40'0 0.0
2017-Nov-11 06:25N 52°28' E 004°40'0 0.0
2017-Nov-11 05:58N 52°28' E 004°40'0 0.0
2017-Nov-11 05:28N 52°28' E 004°40'0 0.0
2017-Nov-11 04:58N 52°28' E 004°40'0 0.0
2017-Nov-11 04:25N 52°28' E 004°40'0 0.0
2017-Nov-11 03:58N 52°28' E 004°40'0 0.0
2017-Nov-11 03:28N 52°28' E 004°40'0 0.0
2017-Nov-11 02:58N 52°28' E 004°40'0 0.0
2017-Nov-11 02:28N 52°28' E 004°40'0 0.0
2017-Nov-11 01:58N 52°28' E 004°40'0 0.0
2017-Nov-11 01:25N 52°28' E 004°40'0 0.0
2017-Nov-11 00:58N 52°28' E 004°40'0 0.0
2017-Nov-11 00:28N 52°28' E 004°40'0 0.0
2017-Nov-10 23:58N 52°28' E 004°40'0 0.0
2017-Nov-10 23:25N 52°28' E 004°40'0 0.0
2017-Nov-10 22:58N 52°28' E 004°40'0 0.0
2017-Nov-10 22:25N 52°28' E 004°40'0 0.0
2017-Nov-10 21:58N 52°28' E 004°40'0 0.0
2017-Nov-10 21:25N 52°28' E 004°40'0 0.0
2017-Nov-10 20:55N 52°28' E 004°40'0 0.0
2017-Nov-10 20:28N 52°28' E 004°40'0 0.0
2017-Nov-10 19:58N 52°28' E 004°40'0 0.0
2017-Nov-10 19:28N 52°28' E 004°40'0 0.0
2017-Nov-10 18:58N 52°28' E 004°40'0 0.0
2017-Nov-10 18:28N 52°28' E 004°40'0 0.0
2017-Nov-10 17:55N 52°28' E 004°40'0 0.0
2017-Nov-10 17:28N 52°28' E 004°40'0 0.0
2017-Nov-10 16:55N 52°28' E 004°40'0 0.0
2017-Nov-10 16:25N 52°28' E 004°40'0 0.0
2017-Nov-10 15:58N 52°28' E 004°40'0 0.0
2017-Nov-10 15:28N 52°28' E 004°40'0 0.0
2017-Nov-10 14:52N 52°28' E 004°40'0 0.0
2017-Nov-10 14:28N 52°28' E 004°40'0 0.0
2017-Nov-10 14:00N 52°28' E 004°40'0 0.0
2017-Nov-10 13:30N 52°28' E 004°40'0 0.0
2017-Nov-10 13:00N 52°28' E 004°40'0 0.5
2017-Nov-10 12:30N 52°28' E 004°40'1 2.9
2017-Nov-10 12:00N 52°28' E 004°37'1 2.5
2017-Nov-10 11:30N 52°28' E 004°35'3 5.5
2017-Nov-10 11:00N 52°28' E 004°31'5 9.6
2017-Nov-10 10:29N 52°28' E 004°23'4 9.4
2017-Nov-10 10:00N 52°28' E 004°15'6 9.8
2017-Nov-10 09:26N 52°28' E 004°06'410.0
2017-Nov-10 09:00N 52°27' E 003°59'7410.0
2017-Nov-10 01:34N 51°38' E 002°29'4 8.4
2017-Nov-10 01:05N 51°34' E 002°25'2 8.0
2017-Nov-10 00:49N 51°33' E 002°23'3 8.1
2017-Nov-10 00:30N 51°31' E 002°20'4 8.1
2017-Nov-10 00:00N 51°27' E 002°17'4 7.8
2017-Nov-09 23:30N 51°24' E 002°13'4 7.8
2017-Nov-09 23:00N 51°21' E 002°10'4 8.0
2017-Nov-09 22:30N 51°18' E 002°06'4 8.0
2017-Nov-09 22:01N 51°14' E 002°03'4 8.1
2017-Nov-09 21:30N 51°12' E 001°58'4 8.3
2017-Nov-09 21:00N 51°09' E 001°53'4 8.5
2017-Nov-09 20:30N 51°06' E 001°47'4 8.7
2017-Nov-09 20:00N 51°03' E 001°42'5 9.2
2017-Nov-09 19:30N 51°00' E 001°37'174 9.5
2017-Nov-09 01:06N 50°13' W 002°47'210.5
2017-Nov-09 00:57N 50°13' W 002°49'510.7
2017-Nov-09 00:30N 50°12' W 002°57'510.9
2017-Nov-09 00:00N 50°12' W 003°05'611.0
2017-Nov-08 23:30N 50°12' W 003°14'611.0
2017-Nov-08 23:00N 50°11' W 003°22'611.2
2017-Nov-08 22:30N 50°11' W 003°31'611.7
2017-Nov-08 22:00N 50°11' W 003°40'811.7
2017-Nov-08 21:22N 50°12' W 003°52'411.4
2017-Nov-08 21:00N 50°14' W 003°57'611.0
2017-Nov-08 20:30N 50°17' W 004°05'5 9.3
2017-Nov-08 20:01N 50°20' W 004°10'3 5.1
2017-Nov-08 19:29N 50°22' W 004°08'0 0.0
2017-Nov-08 18:59N 50°22' W 004°08'0 0.0
2017-Nov-08 18:29N 50°22' W 004°08'0 0.0
2017-Nov-08 17:59N 50°22' W 004°08'0 0.0
2017-Nov-08 17:29N 50°22' W 004°08'0 0.0
2017-Nov-08 16:59N 50°22' W 004°08'0 0.0
2017-Nov-08 16:29N 50°22' W 004°08'0 0.0
2017-Nov-08 15:59N 50°22' W 004°08'0 0.0
2017-Nov-08 15:29N 50°22' W 004°08'0 0.0
2017-Nov-08 14:59N 50°22' W 004°08'0 0.0
2017-Nov-08 14:29N 50°22' W 004°08'0 0.0
2017-Nov-08 13:59N 50°22' W 004°08'0 0.0
2017-Nov-08 13:29N 50°22' W 004°08'  
Track history (hours):
 
Tides and Currents Weather Stations Pressure Air Temp Water Temp Dewpoint Dewpoint Depression Visibility Wind Speed Wind Dir Waves Ship Positions

Plato

Last reported at 2017-Nov-18 13:29 UTC. Time now 2017-Nov-19 13:59 UTC.
Position N 57°41' E 007°28'.

Length 89 m; draft 4.8 m.

Type: Cargo ship. MMSI: 314189000.

Date/timePositionNaut miles runAvg speedWind from/ knotsBaromVisibWave heightAir tempDewpointWater temp
2017-Nov-18 13:29N 57°41' E 007°28'3 6.0
2017-Nov-18 13:00N 57°43' E 007°32'3 6.6
2017-Nov-18 12:30N 57°45' E 007°37'4 7.1
2017-Nov-18 12:00N 57°47' E 007°42'4 7.3
2017-Nov-18 11:30N 57°49' E 007°48'4 7.5
2017-Nov-18 11:00N 57°52' E 007°53'4 7.8
2017-Nov-18 10:30N 57°54' E 007°59'4 7.5
2017-Nov-18 10:00N 57°56' E 008°05'4 8.0
2017-Nov-18 09:30N 57°58' E 008°11'4 7.8
2017-Nov-18 09:00N 58°01' E 008°17'4 8.1
2017-Nov-18 08:30N 58°03' E 008°23'4 8.4
2017-Nov-18 08:00N 58°06' E 008°30'4 8.6
2017-Nov-18 07:30N 58°08' E 008°36'4 8.7
2017-Nov-18 07:00N 58°11' E 008°43'4 8.3
2017-Nov-18 06:30N 58°13' E 008°49'4 8.3
2017-Nov-18 06:00N 58°16' E 008°55'4 8.1
2017-Nov-18 05:30N 58°18' E 009°02'4 7.8
2017-Nov-18 05:00N 58°21' E 009°07'4 7.7
2017-Nov-18 04:30N 58°23' E 009°13'4 7.6
2017-Nov-18 04:00N 58°25' E 009°19'4 7.6
2017-Nov-18 03:30N 58°27' E 009°25'4 7.8
2017-Nov-18 03:00N 58°30' E 009°31'19 7.2
2017-Nov-18 00:23N 58°41' E 009°60'3 6.7
2017-Nov-18 00:00N 58°43' E 010°03'3 6.1
2017-Nov-17 23:30N 58°45' E 010°08'3 6.2
2017-Nov-17 23:01N 58°47' E 010°12'3 6.4
2017-Nov-17 22:30N 58°49' E 010°17'3 5.9
2017-Nov-17 22:00N 58°51' E 010°21'3 5.3
2017-Nov-17 21:30N 58°53' E 010°25'3 5.6
2017-Nov-17 21:00N 58°55' E 010°28'3 5.6
2017-Nov-17 20:30N 58°57' E 010°32'3 5.4
2017-Nov-17 20:00N 58°59' E 010°36'3 5.6
2017-Nov-17 19:30N 59°00' E 010°41'3 5.6
2017-Nov-17 19:00N 59°02' E 010°45'3 6.2
2017-Nov-17 18:31N 59°01' E 010°51'4 7.6
2017-Nov-17 18:01N 58°60' E 010°58'4 7.8
2017-Nov-17 17:31N 59°04' E 010°58'5 9.8
2017-Nov-17 17:00N 59°09' E 010°58'3 5.1
2017-Nov-17 16:30N 59°11' E 010°57'0 0.8
2017-Nov-17 16:00N 59°11' E 010°57'0 0.0
2017-Nov-17 15:30N 59°11' E 010°57'0 0.0
2017-Nov-17 15:00N 59°11' E 010°57'0 0.0
2017-Nov-17 14:30N 59°11' E 010°57'0 0.0
2017-Nov-17 14:00N 59°11' E 010°57'0 0.0
2017-Nov-17 13:30N 59°11' E 010°57'0 0.0
2017-Nov-17 13:00N 59°11' E 010°57'0 0.0
2017-Nov-17 12:30N 59°11' E 010°57'0 0.0
2017-Nov-17 12:00N 59°11' E 010°57'0 0.0
2017-Nov-17 11:30N 59°11' E 010°57'0 0.0
2017-Nov-17 11:00N 59°11' E 010°57'0 0.0
2017-Nov-17 10:30N 59°11' E 010°57'0 0.0
2017-Nov-17 10:00N 59°11' E 010°57'0 0.0
2017-Nov-17 09:30N 59°11' E 010°57'0 0.0
2017-Nov-17 09:00N 59°11' E 010°57'0 0.0
2017-Nov-17 08:30N 59°11' E 010°57'0 0.0
2017-Nov-17 08:00N 59°11' E 010°57'0 0.0
2017-Nov-17 07:30N 59°11' E 010°57'0 0.0
2017-Nov-17 07:00N 59°11' E 010°57'0 0.0
2017-Nov-17 06:30N 59°11' E 010°57'0 0.0
2017-Nov-17 06:00N 59°11' E 010°57'0 0.0
2017-Nov-17 05:30N 59°11' E 010°57'0 0.0
2017-Nov-17 05:00N 59°11' E 010°57'0 0.0
2017-Nov-17 04:30N 59°11' E 010°57'0 0.0
2017-Nov-17 04:00N 59°11' E 010°57'0 0.0
2017-Nov-17 03:30N 59°11' E 010°57'0 0.0
2017-Nov-17 03:00N 59°11' E 010°57'0 0.0
2017-Nov-17 02:30N 59°11' E 010°57'0 0.0
2017-Nov-17 02:00N 59°11' E 010°57'0 0.0
2017-Nov-17 01:30N 59°11' E 010°57'0 0.0
2017-Nov-17 01:00N 59°11' E 010°57'0 0.0
2017-Nov-17 00:30N 59°11' E 010°57'0 0.0
2017-Nov-17 00:00N 59°11' E 010°57'0 0.0
2017-Nov-16 23:30N 59°11' E 010°57'0 0.0
2017-Nov-16 23:00N 59°11' E 010°57'0 0.0
2017-Nov-16 22:30N 59°11' E 010°57'0 0.0
2017-Nov-16 22:00N 59°11' E 010°57'0 0.0
2017-Nov-16 21:30N 59°11' E 010°57'0 0.0
2017-Nov-16 21:00N 59°11' E 010°57'0 0.0
2017-Nov-16 20:30N 59°11' E 010°57'0 0.0
2017-Nov-16 19:59N 59°11' E 010°57'0 0.1
2017-Nov-16 19:30N 59°11' E 010°57'3 7.0
2017-Nov-16 19:00N 59°07' E 010°58'4 8.7
2017-Nov-16 18:30N 59°03' E 010°58'2 4.8
2017-Nov-16 18:00N 59°01' E 010°59'0 0.4
2017-Nov-16 17:30N 59°01' E 010°59'0 0.1
2017-Nov-16 17:00N 59°01' E 010°59'0 0.0
2017-Nov-16 16:30N 59°01' E 010°59'0 0.1
2017-Nov-16 16:00N 59°01' E 010°59'0 0.1
2017-Nov-16 15:30N 59°01' E 010°59'0 0.1
2017-Nov-16 15:00N 59°01' E 010°59'0 0.0
2017-Nov-16 14:30N 59°01' E 010°59'0 0.0
2017-Nov-16 14:00N 59°01' E 010°59'0 0.1
2017-Nov-16 13:30N 59°01' E 010°59'0 0.1
2017-Nov-16 13:00N 59°01' E 010°59'0 0.0
2017-Nov-16 12:30N 59°01' E 010°59'0 0.0
2017-Nov-16 12:00N 59°01' E 010°59'0 0.0
2017-Nov-16 11:30N 59°01' E 010°59'0 0.0
2017-Nov-16 11:00N 59°01' E 010°59'0 0.0
2017-Nov-16 10:30N 59°01' E 010°59'0 0.0
2017-Nov-16 10:00N 59°01' E 010°59'0 0.0
2017-Nov-16 09:30N 59°01' E 010°59'0 0.0
2017-Nov-16 09:00N 59°01' E 010°59'0 0.0
2017-Nov-16 08:30N 59°01' E 010°59'0 0.0
2017-Nov-16 08:00N 59°01' E 010°59'1 1.4
2017-Nov-16 07:30N 59°01' E 010°57'4 7.5
2017-Nov-16 07:00N 59°02' E 010°50'3 5.8
2017-Nov-16 06:30N 59°01' E 010°45'4 7.9
2017-Nov-16 06:00N 58°58' E 010°40'4 8.3
2017-Nov-16 05:30N 58°56' E 010°34'5 9.3
2017-Nov-16 05:00N 58°52' E 010°27'4 8.9
2017-Nov-16 04:30N 58°49' E 010°21'4 8.3
2017-Nov-16 04:00N 58°46' E 010°15'4 8.2
2017-Nov-16 03:30N 58°44' E 010°09'52 6.3
2017-Nov-15 19:16N 58°04' E 009°04'22 8.2
2017-Nov-15 16:36N 57°44' E 008°52'1 8.6
2017-Nov-15 16:29N 57°43' E 008°51'4 8.6
2017-Nov-15 16:00N 57°39' E 008°49'4 7.8
2017-Nov-15 15:29N 57°35' E 008°48'4 7.8
2017-Nov-15 15:00N 57°31' E 008°46'4 8.6
2017-Nov-15 14:30N 57°28' E 008°42'4 8.4
2017-Nov-15 14:00N 57°24' E 008°37'303 8.1
2017-Nov-14 00:27N 52°58' E 004°22'4 9.2
2017-Nov-13 23:59N 52°54' E 004°19'5 9.5
2017-Nov-13 23:30N 52°50' E 004°16'4 8.7
2017-Nov-13 23:00N 52°46' E 004°15'4 8.3
2017-Nov-13 22:30N 52°42' E 004°17'4 7.8
2017-Nov-13 22:01N 52°38' E 004°19'16 0.8
2017-Nov-13 01:58N 52°28' E 004°40'0 0.0
2017-Nov-13 01:28N 52°28' E 004°40'0 0.0
2017-Nov-13 00:58N 52°28' E 004°40'0 0.0
2017-Nov-13 00:25N 52°28' E 004°40'0 0.0
2017-Nov-12 23:55N 52°28' E 004°40'0 0.0
2017-Nov-12 23:28N 52°28' E 004°40'0 0.0
2017-Nov-12 22:58N 52°28' E 004°40'0 0.0
2017-Nov-12 22:28N 52°28' E 004°40'0 0.0
2017-Nov-12 21:58N 52°28' E 004°40'0 0.0
2017-Nov-12 21:28N 52°28' E 004°40'0 0.0
2017-Nov-12 20:58N 52°28' E 004°40'0 0.0
2017-Nov-12 20:28N 52°28' E 004°40'0 0.0
2017-Nov-12 19:58N 52°28' E 004°40'0 0.0
2017-Nov-12 19:28N 52°28' E 004°40'0 0.0
2017-Nov-12 18:58N 52°28' E 004°40'0 0.0
2017-Nov-12 18:28N 52°28' E 004°40'0 0.0
2017-Nov-12 17:58N 52°28' E 004°40'0 0.0
2017-Nov-12 17:28N 52°28' E 004°40'0 0.0
2017-Nov-12 16:58N 52°28' E 004°40'0 0.0
2017-Nov-12 16:28N 52°28' E 004°40'0 0.0
2017-Nov-12 15:55N 52°28' E 004°40'0 0.0
2017-Nov-12 15:22N 52°28' E 004°40'0 0.0
2017-Nov-12 14:49N 52°28' E 004°40'0 0.0
2017-Nov-12 14:25N 52°28' E 004°40'0 0.0
2017-Nov-12 13:58N 52°28' E 004°40'0 0.0
2017-Nov-12 13:28N 52°28' E 004°40'0 0.0
2017-Nov-12 12:58N 52°28' E 004°40'0 0.0
2017-Nov-12 12:28N 52°28' E 004°40'0 0.0
2017-Nov-12 11:58N 52°28' E 004°40'0 0.0
2017-Nov-12 11:28N 52°28' E 004°40'0 0.0
2017-Nov-12 10:58N 52°28' E 004°40'0 0.0
2017-Nov-12 10:28N 52°28' E 004°40'0 0.0
2017-Nov-12 09:58N 52°28' E 004°40'0 0.0
2017-Nov-12 09:28N 52°28' E 004°40'0 0.0
2017-Nov-12 08:58N 52°28' E 004°40'0 0.0
2017-Nov-12 08:28N 52°28' E 004°40'0 0.0
2017-Nov-12 07:58N 52°28' E 004°40'0 0.0
2017-Nov-12 07:28N 52°28' E 004°40'0 0.0
2017-Nov-12 06:52N 52°28' E 004°40'0 0.0
2017-Nov-12 06:25N 52°28' E 004°40'0 0.0
2017-Nov-12 05:58N 52°28' E 004°40'0 0.0
2017-Nov-12 05:28N 52°28' E 004°40'0 0.0
2017-Nov-12 04:58N 52°28' E 004°40'0 0.0
2017-Nov-12 04:28N 52°28' E 004°40'0 0.0
2017-Nov-12 03:58N 52°28' E 004°40'0 0.0
2017-Nov-12 03:25N 52°28' E 004°40'0 0.0
2017-Nov-12 02:58N 52°28' E 004°40'0 0.0
2017-Nov-12 02:28N 52°28' E 004°40'0 0.0
2017-Nov-12 01:58N 52°28' E 004°40'0 0.0
2017-Nov-12 01:28N 52°28' E 004°40'0 0.0
2017-Nov-12 00:58N 52°28' E 004°40'0 0.0
2017-Nov-12 00:28N 52°28' E 004°40'0 0.0
2017-Nov-11 23:58N 52°28' E 004°40'0 0.0
2017-Nov-11 23:28N 52°28' E 004°40'0 0.0
2017-Nov-11 22:58N 52°28' E 004°40'0 0.0
2017-Nov-11 22:28N 52°28' E 004°40'0 0.0
2017-Nov-11 21:58N 52°28' E 004°40'0 0.0
2017-Nov-11 21:28N 52°28' E 004°40'0 0.0
2017-Nov-11 20:58N 52°28' E 004°40'0 0.0
2017-Nov-11 20:28N 52°28' E 004°40'0 0.0
2017-Nov-11 19:58N 52°28' E 004°40'0 0.0
2017-Nov-11 19:28N 52°28' E 004°40'0 0.0
2017-Nov-11 18:58N 52°28' E 004°40'0 0.0
2017-Nov-11 18:25N 52°28' E 004°40'0 0.0
2017-Nov-11 17:58N 52°28' E 004°40'0 0.0
2017-Nov-11 17:28N 52°28' E 004°40'0 0.0
2017-Nov-11 16:52N 52°28' E 004°40'0 0.0
2017-Nov-11 16:25N 52°28' E 004°40'0 0.0
2017-Nov-11 15:58N 52°28' E 004°40'0 0.0
2017-Nov-11 15:28N 52°28' E 004°40'0 0.0
2017-Nov-11 14:58N 52°28' E 004°40'0 0.0
2017-Nov-11 14:22N 52°28' E 004°40'0 0.0
2017-Nov-11 13:58N 52°28' E 004°40'0 0.0
2017-Nov-11 13:28N 52°28' E 004°40'0 0.0
2017-Nov-11 12:58N 52°28' E 004°40'0 0.0
2017-Nov-11 12:28N 52°28' E 004°40'0 0.0
2017-Nov-11 11:58N 52°28' E 004°40'0 0.0
2017-Nov-11 11:28N 52°28' E 004°40'0 0.0
2017-Nov-11 10:46N 52°28' E 004°40'0 0.0
2017-Nov-11 10:25N 52°28' E 004°40'0 0.0
2017-Nov-11 09:49N 52°28' E 004°40'0 0.0
2017-Nov-11 09:28N 52°28' E 004°40'0 0.0
2017-Nov-11 08:58N 52°28' E 004°40'0 0.0
2017-Nov-11 08:28N 52°28' E 004°40'0 0.0
2017-Nov-11 07:58N 52°28' E 004°40'0 0.0
2017-Nov-11 07:28N 52°28' E 004°40'0 0.0
2017-Nov-11 06:58N 52°28' E 004°40'0 0.0
2017-Nov-11 06:25N 52°28' E 004°40'0 0.0
2017-Nov-11 05:58N 52°28' E 004°40'0 0.0
2017-Nov-11 05:28N 52°28' E 004°40'0 0.0
2017-Nov-11 04:58N 52°28' E 004°40'0 0.0
2017-Nov-11 04:25N 52°28' E 004°40'0 0.0
2017-Nov-11 03:58N 52°28' E 004°40'0 0.0
2017-Nov-11 03:28N 52°28' E 004°40'0 0.0
2017-Nov-11 02:58N 52°28' E 004°40'0 0.0
2017-Nov-11 02:28N 52°28' E 004°40'0 0.0
2017-Nov-11 01:58N 52°28' E 004°40'0 0.0
2017-Nov-11 01:25N 52°28' E 004°40'0 0.0
2017-Nov-11 00:58N 52°28' E 004°40'0 0.0
2017-Nov-11 00:28N 52°28' E 004°40'0 0.0
2017-Nov-10 23:58N 52°28' E 004°40'0 0.0
2017-Nov-10 23:25N 52°28' E 004°40'0 0.0
2017-Nov-10 22:58N 52°28' E 004°40'0 0.0
2017-Nov-10 22:25N 52°28' E 004°40'0 0.0
2017-Nov-10 21:58N 52°28' E 004°40'0 0.0
2017-Nov-10 21:25N 52°28' E 004°40'0 0.0
2017-Nov-10 20:55N 52°28' E 004°40'0 0.0
2017-Nov-10 20:28N 52°28' E 004°40'0 0.0
2017-Nov-10 19:58N 52°28' E 004°40'0 0.0
2017-Nov-10 19:28N 52°28' E 004°40'0 0.0
2017-Nov-10 18:58N 52°28' E 004°40'0 0.0
2017-Nov-10 18:28N 52°28' E 004°40'0 0.0
2017-Nov-10 17:55N 52°28' E 004°40'0 0.0
2017-Nov-10 17:28N 52°28' E 004°40'0 0.0
2017-Nov-10 16:55N 52°28' E 004°40'0 0.0
2017-Nov-10 16:25N 52°28' E 004°40'0 0.0
2017-Nov-10 15:58N 52°28' E 004°40'0 0.0
2017-Nov-10 15:28N 52°28' E 004°40'0 0.0
2017-Nov-10 14:52N 52°28' E 004°40'0 0.0
2017-Nov-10 14:28N 52°28' E 004°40'0 0.0
2017-Nov-10 14:00N 52°28' E 004°40'0 0.0
2017-Nov-10 13:30N 52°28' E 004°40'0 0.0
2017-Nov-10 13:00N 52°28' E 004°40'0 0.5
2017-Nov-10 12:30N 52°28' E 004°40'1 2.9
2017-Nov-10 12:00N 52°28' E 004°37'1 2.5
2017-Nov-10 11:30N 52°28' E 004°35'3 5.5
2017-Nov-10 11:00N 52°28' E 004°31'5 9.6
2017-Nov-10 10:29N 52°28' E 004°23'4 9.4
2017-Nov-10 10:00N 52°28' E 004°15'6 9.8
2017-Nov-10 09:26N 52°28' E 004°06'410.0
2017-Nov-10 09:00N 52°27' E 003°59'7410.0
2017-Nov-10 01:34N 51°38' E 002°29'4 8.4
2017-Nov-10 01:05N 51°34' E 002°25'2 8.0
2017-Nov-10 00:49N 51°33' E 002°23'3 8.1
2017-Nov-10 00:30N 51°31' E 002°20'4 8.1
2017-Nov-10 00:00N 51°27' E 002°17'4 7.8
2017-Nov-09 23:30N 51°24' E 002°13'4 7.8
2017-Nov-09 23:00N 51°21' E 002°10'4 8.0
2017-Nov-09 22:30N 51°18' E 002°06'4 8.0
2017-Nov-09 22:01N 51°14' E 002°03'4 8.1
2017-Nov-09 21:30N 51°12' E 001°58'4 8.3
2017-Nov-09 21:00N 51°09' E 001°53'4 8.5
2017-Nov-09 20:30N 51°06' E 001°47'4 8.7
2017-Nov-09 20:00N 51°03' E 001°42'5 9.2
2017-Nov-09 19:30N 51°00' E 001°37'174 9.5
2017-Nov-09 01:06N 50°13' W 002°47'210.5
2017-Nov-09 00:57N 50°13' W 002°49'510.7
2017-Nov-09 00:30N 50°12' W 002°57'510.9
2017-Nov-09 00:00N 50°12' W 003°05'611.0
2017-Nov-08 23:30N 50°12' W 003°14'611.0
2017-Nov-08 23:00N 50°11' W 003°22'611.2
2017-Nov-08 22:30N 50°11' W 003°31'611.7
2017-Nov-08 22:00N 50°11' W 003°40'811.7
2017-Nov-08 21:22N 50°12' W 003°52'411.4
2017-Nov-08 21:00N 50°14' W 003°57'611.0
2017-Nov-08 20:30N 50°17' W 004°05'5 9.3
2017-Nov-08 20:01N 50°20' W 004°10'3 5.1
2017-Nov-08 19:29N 50°22' W 004°08'0 0.0
2017-Nov-08 18:59N 50°22' W 004°08'0 0.0
2017-Nov-08 18:29N 50°22' W 004°08'0 0.0
2017-Nov-08 17:59N 50°22' W 004°08'0 0.0
2017-Nov-08 17:29N 50°22' W 004°08'0 0.0
2017-Nov-08 16:59N 50°22' W 004°08'0 0.0
2017-Nov-08 16:29N 50°22' W 004°08'0 0.0
2017-Nov-08 15:59N 50°22' W 004°08'0 0.0
2017-Nov-08 15:29N 50°22' W 004°08'0 0.0
2017-Nov-08 14:59N 50°22' W 004°08'0 0.0
2017-Nov-08 14:29N 50°22' W 004°08'0 0.0
2017-Nov-08 13:59N 50°22' W 004°08'0 0.0
2017-Nov-08 13:29N 50°22' W 004°08'  

Dump ship's entire track history